KONM

Socorro Municipal Airport

Socorro, New Mexico, USA
METAR KONM 171755Z AUTO 10011G15KT 10SM OVC038 13/02 A3040 RMK AO2 T01250017 10126 20068
Observed Flight Rules
Oct-17 @ 17:55 UTC (26 minutes ago) Visual Flight Rules
Wind Visibility Clouds
100° at 11 knots
 Gusting to 15 knots
10 miles
  • Overcast at 3,800' AGL
Temperatures Readings
Current 13°C / 55°F
Dewpoint 2°C / 36°F
Humidity 47%
Altimeter 30.4" Hg
Pressure 1029 hPa
Elevation 1410
METAR KONM 171755Z AUTO 10011G15KT 10SM OVC038 13/02 A3040 RMK AO2 T01250017 10126 20068
Observed Flight Rules
Oct-17 @ 17:55 UTC
(26 minutes ago)
VFR
Wind Visibility
100° at 11 knots
 Gusting to 15 knots
10 miles
Clouds
  • Overcast at 3,800' AGL
Temperature Dewpoint
13°C / 55°F 2°C / 36°F
Humidity Altimeter Pressure
47% 30.4" Hg 1029 hPa